createdAt,value
2023-03-25T00:00:30.144Z,1.20
2023-03-25T00:01:32.848Z,1.30
2023-03-25T00:02:34.663Z,0.97
2023-03-25T00:03:41.733Z,0.93
2023-03-25T00:04:43.123Z,0.90
2023-03-25T00:05:44.533Z,1.00
2023-03-25T00:06:45.965Z,1.03
2023-03-25T00:07:49.174Z,1.00
2023-03-25T00:08:51.066Z,1.07
2023-03-25T00:09:52.452Z,0.80
2023-03-25T00:10:54.710Z,0.93
2023-03-25T00:11:56.260Z,1.10
2023-03-25T00:13:04.631Z,1.10
2023-03-25T00:14:06.054Z,0.87
2023-03-25T00:15:08.242Z,0.73
2023-03-25T00:16:10.363Z,0.90
2023-03-25T00:17:13.865Z,0.80
2023-03-25T00:18:17.384Z,0.83
2023-03-25T00:19:21.186Z,0.80
2023-03-25T00:20:23.294Z,0.87
2023-03-25T00:21:24.622Z,0.80
2023-03-25T00:22:26.434Z,0.90
2023-03-25T00:23:28.668Z,0.70
2023-03-25T00:24:30.242Z,0.70
2023-03-25T00:25:32.426Z,0.70
2023-03-25T00:26:33.846Z,0.93
2023-03-25T00:27:35.421Z,0.80
2023-03-25T00:28:38.163Z,0.63
2023-03-25T00:29:39.712Z,0.63
2023-03-25T00:30:41.920Z,1.00
2023-03-25T00:31:43.479Z,0.70
2023-03-25T00:32:52.799Z,0.70
2023-03-25T00:33:54.968Z,0.70
2023-03-25T00:34:56.280Z,1.17
2023-03-25T00:35:59.334Z,0.53
2023-03-25T00:37:02.374Z,1.10
2023-03-25T00:38:03.944Z,1.03
2023-03-25T00:39:05.735Z,0.60
2023-03-25T00:40:07.582Z,0.70
2023-03-25T00:41:09.983Z,0.87
2023-03-25T00:42:13.849Z,0.70
2023-03-25T00:43:15.558Z,0.90
2023-03-25T00:44:17.999Z,0.67
2023-03-25T00:45:19.609Z,0.80
2023-03-25T00:46:22.778Z,0.70
2023-03-25T00:47:24.426Z,1.10
2023-03-25T00:48:27.294Z,0.97
2023-03-25T00:49:28.836Z,1.10
2023-03-25T00:50:30.224Z,0.90
2023-03-25T00:51:33.701Z,1.20
2023-03-25T00:52:35.233Z,1.30
2023-03-25T00:53:37.212Z,1.07
2023-03-25T00:54:39.319Z,1.30
2023-03-25T00:55:41.413Z,1.60
2023-03-25T00:56:42.910Z,1.50
2023-03-25T00:57:44.335Z,1.30
2023-03-25T00:58:45.723Z,1.40
2023-03-25T00:59:47.034Z,1.47
2023-03-25T01:00:48.375Z,1.13
2023-03-25T01:01:53.069Z,1.50
2023-03-25T01:02:54.685Z,1.20
2023-03-25T01:04:00.179Z,1.37
2023-03-25T01:05:02.240Z,1.50
2023-03-25T01:06:03.872Z,1.47
2023-03-25T01:07:05.335Z,1.10
2023-03-25T01:08:06.693Z,1.27
2023-03-25T01:09:08.423Z,1.27
2023-03-25T01:10:10.002Z,1.20
2023-03-25T01:11:19.943Z,0.90
2023-03-25T01:12:24.165Z,1.20
2023-03-25T01:13:25.709Z,1.00
2023-03-25T01:14:29.859Z,1.00
2023-03-25T01:15:31.271Z,0.97
2023-03-25T01:16:33.018Z,1.00
2023-03-25T01:17:34.363Z,1.00
2023-03-25T01:18:38.645Z,1.20
2023-03-25T01:19:40.268Z,0.93
2023-03-25T01:20:41.992Z,0.90
2023-03-25T01:21:45.135Z,1.00
2023-03-25T01:22:46.536Z,1.10
2023-03-25T01:23:47.933Z,0.87
2023-03-25T01:24:49.264Z,1.40
2023-03-25T01:25:50.885Z,0.80
2023-03-25T01:26:52.476Z,1.07
2023-03-25T01:27:53.815Z,1.20
2023-03-25T01:28:55.308Z,0.87
2023-03-25T01:29:57.128Z,1.00
2023-03-25T01:31:05.756Z,1.10
2023-03-25T01:32:07.190Z,1.00
2023-03-25T01:33:08.758Z,0.80
2023-03-25T01:34:10.251Z,1.20
2023-03-25T01:35:12.203Z,1.23
2023-03-25T01:36:13.880Z,1.53
2023-03-25T01:37:15.551Z,1.00
2023-03-25T01:38:17.158Z,1.17
2023-03-25T01:39:18.748Z,1.30
2023-03-25T01:40:21.180Z,1.17
2023-03-25T01:41:22.566Z,1.47
2023-03-25T01:42:23.927Z,1.00
2023-03-25T01:43:25.696Z,1.10
2023-03-25T01:44:29.143Z,1.27
2023-03-25T01:45:32.699Z,1.00
2023-03-25T01:46:34.720Z,1.10
2023-03-25T01:47:36.251Z,1.00
2023-03-25T01:48:39.277Z,1.13
2023-03-25T01:49:44.228Z,1.20
2023-03-25T01:50:49.127Z,0.90
2023-03-25T01:51:52.812Z,1.07
2023-03-25T01:52:54.204Z,1.10
2023-03-25T01:53:55.601Z,0.90
2023-03-25T01:54:58.235Z,1.00
2023-03-25T01:56:02.372Z,1.10
2023-03-25T01:57:03.935Z,1.37
2023-03-25T01:58:11.866Z,0.90
2023-03-25T01:59:14.931Z,1.00
2023-03-25T02:00:16.505Z,1.00
2023-03-25T02:01:21.615Z,0.80
2023-03-25T02:02:25.406Z,1.00
2023-03-25T02:03:27.909Z,1.10
2023-03-25T02:04:51.636Z,1.17
2023-03-25T02:06:03.589Z,0.90
2023-03-25T02:07:07.261Z,0.70
2023-03-25T02:08:09.271Z,0.50
2023-03-25T02:09:12.025Z,0.60
2023-03-25T02:10:14.169Z,0.60
2023-03-25T02:11:15.508Z,0.50
2023-03-25T02:12:16.820Z,0.60
2023-03-25T02:13:18.690Z,0.50
2023-03-25T02:14:24.851Z,0.57
2023-03-25T02:15:26.316Z,0.53
2023-03-25T02:16:34.175Z,0.50
2023-03-25T02:17:47.679Z,0.40
2023-03-25T02:19:01.338Z,0.40
2023-03-25T02:20:38.226Z,0.30
2023-03-25T02:21:52.152Z,0.60
2023-03-25T02:23:07.658Z,0.50
2023-03-25T02:24:14.784Z,0.60
2023-03-25T02:25:35.387Z,0.60
2023-03-25T02:26:45.886Z,0.30
2023-03-25T02:28:03.398Z,0.50
2023-03-25T02:29:23.974Z,0.50
2023-03-25T02:30:35.683Z,0.60
2023-03-25T02:31:37.254Z,0.40
2023-03-25T02:32:52.926Z,0.47
2023-03-25T02:34:04.351Z,0.70
2023-03-25T02:35:14.802Z,0.57
2023-03-25T02:36:30.178Z,0.40
2023-03-25T02:37:50.790Z,0.40
2023-03-25T02:39:01.432Z,0.50
2023-03-25T02:40:14.002Z,0.60
2023-03-25T02:41:30.234Z,0.40
2023-03-25T02:42:34.185Z,0.70
2023-03-25T02:43:45.878Z,0.50
2023-03-25T02:44:50.466Z,0.57
2023-03-25T02:45:53.910Z,0.40
2023-03-25T02:46:57.288Z,0.30
2023-03-25T02:48:00.819Z,0.50
2023-03-25T02:49:13.569Z,0.40
2023-03-25T02:50:17.373Z,0.40
2023-03-25T02:51:26.044Z,0.40
2023-03-25T02:52:29.745Z,0.40
2023-03-25T02:53:34.280Z,0.43
2023-03-25T02:54:39.122Z,0.40
2023-03-25T02:55:42.250Z,0.50
2023-03-25T02:56:47.241Z,0.37
2023-03-25T02:57:50.110Z,0.40
2023-03-25T02:58:55.431Z,0.40
2023-03-25T02:59:57.365Z,0.40
2023-03-25T03:00:59.063Z,0.40
2023-03-25T03:02:02.992Z,0.70
2023-03-25T03:03:06.212Z,0.50
2023-03-25T03:04:08.210Z,0.60
2023-03-25T03:05:21.225Z,0.60
2023-03-25T03:06:24.190Z,0.50
2023-03-25T03:07:33.313Z,0.50
2023-03-25T03:08:44.605Z,0.60
2023-03-25T03:09:49.775Z,0.60
2023-03-25T03:10:51.105Z,0.60
2023-03-25T03:12:09.296Z,0.50
2023-03-25T03:13:21.503Z,0.40
2023-03-25T03:14:31.617Z,0.50
2023-03-25T03:15:38.912Z,0.50
2023-03-25T03:16:52.010Z,0.50
2023-03-25T03:18:01.347Z,0.60
2023-03-25T03:19:07.425Z,0.50
2023-03-25T03:20:27.288Z,0.67
2023-03-25T03:21:35.079Z,0.70
2023-03-25T03:22:54.057Z,0.70
2023-03-25T03:24:22.130Z,0.70
2023-03-25T03:25:23.730Z,0.50
2023-03-25T03:26:38.265Z,0.70
2023-03-25T03:27:49.854Z,0.50
2023-03-25T03:28:57.526Z,0.50
2023-03-25T03:30:27.144Z,0.60
2023-03-25T03:32:04.688Z,0.40
2023-03-25T03:32:53.694Z,0.50
2023-03-25T03:34:03.044Z,0.57
2023-03-25T03:35:08.089Z,0.57
2023-03-25T03:36:13.654Z,0.67
2023-03-25T03:37:20.493Z,0.50
2023-03-25T03:38:22.774Z,0.70
2023-03-25T03:39:27.937Z,0.60
2023-03-25T03:40:30.599Z,0.63
2023-03-25T03:41:34.164Z,0.67
2023-03-25T03:42:43.522Z,0.93
2023-03-25T03:43:44.830Z,0.90
2023-03-25T03:44:50.094Z,0.50
2023-03-25T03:45:53.786Z,0.50
2023-03-25T03:46:59.172Z,0.70
2023-03-25T03:48:02.591Z,0.60
2023-03-25T03:49:06.307Z,0.60
2023-03-25T03:50:14.430Z,0.63
2023-03-25T03:51:18.665Z,0.60
2023-03-25T03:52:42.581Z,0.63
2023-03-25T03:53:52.123Z,0.70
2023-03-25T03:55:14.666Z,0.83
2023-03-25T03:56:19.257Z,0.70
2023-03-25T03:57:24.077Z,0.70
2023-03-25T03:58:28.514Z,0.77
2023-03-25T03:59:46.532Z,0.73
2023-03-25T04:00:50.490Z,0.70
2023-03-25T04:01:54.056Z,0.70
2023-03-25T04:03:05.175Z,0.83
2023-03-25T04:04:10.583Z,0.63
2023-03-25T04:05:13.467Z,0.80
2023-03-25T04:06:27.673Z,0.60
2023-03-25T04:07:41.535Z,0.83
2023-03-25T04:09:00.240Z,0.70
2023-03-25T04:10:15.076Z,0.97
2023-03-25T04:11:19.020Z,0.70
2023-03-25T04:12:27.833Z,0.90
2023-03-25T04:13:39.325Z,0.70
2023-03-25T04:14:41.318Z,0.73
2023-03-25T04:15:43.528Z,0.67
2023-03-25T04:16:45.827Z,0.70
2023-03-25T04:17:48.151Z,0.80
2023-03-25T04:18:53.526Z,0.70
2023-03-25T04:19:54.885Z,0.70
2023-03-25T04:20:56.254Z,0.50
2023-03-25T04:21:57.691Z,0.70
2023-03-25T04:22:59.170Z,0.60
2023-03-25T04:24:01.569Z,0.40
2023-03-25T04:25:04.628Z,0.40
2023-03-25T04:26:06.111Z,0.57
2023-03-25T04:27:09.610Z,0.70
2023-03-25T04:28:13.597Z,0.60
2023-03-25T04:29:14.939Z,0.53
2023-03-25T04:30:18.007Z,0.90
2023-03-25T04:31:19.365Z,0.57
2023-03-25T04:32:20.691Z,0.57
2023-03-25T04:33:25.396Z,0.60
2023-03-25T04:34:27.263Z,0.60
2023-03-25T04:35:28.685Z,0.70
2023-03-25T04:36:33.683Z,0.50
2023-03-25T04:37:37.007Z,0.60
2023-03-25T04:38:38.335Z,0.70
2023-03-25T04:39:39.742Z,0.50
2023-03-25T04:40:41.079Z,0.60
2023-03-25T04:41:42.455Z,1.20
2023-03-25T04:42:44.137Z,0.60
2023-03-25T04:43:45.505Z,0.60
2023-03-25T04:44:46.874Z,0.60
2023-03-25T04:45:55.082Z,0.57
2023-03-25T04:46:57.047Z,0.70
2023-03-25T04:47:58.380Z,0.60
2023-03-25T04:49:00.423Z,0.60
2023-03-25T04:50:01.802Z,0.60
2023-03-25T04:51:03.671Z,0.73
2023-03-25T04:52:05.223Z,0.87
2023-03-25T04:53:06.715Z,0.87
2023-03-25T04:54:08.026Z,0.77
2023-03-25T04:55:11.641Z,0.80
2023-03-25T04:56:16.073Z,0.83
2023-03-25T04:57:17.468Z,0.70
2023-03-25T04:58:18.899Z,0.77
2023-03-25T04:59:24.214Z,0.53
2023-03-25T05:00:25.573Z,0.70
2023-03-25T05:01:31.082Z,0.87
2023-03-25T05:02:32.559Z,0.90
2023-03-25T05:03:34.109Z,1.13
2023-03-25T05:04:35.606Z,0.70
2023-03-25T05:05:37.432Z,0.90
2023-03-25T05:06:39.756Z,0.87
2023-03-25T05:07:41.057Z,1.00
2023-03-25T05:08:42.557Z,0.93
2023-03-25T05:09:43.910Z,0.93
2023-03-25T05:10:45.277Z,0.90
2023-03-25T05:11:46.711Z,1.33
2023-03-25T05:12:48.943Z,1.00
2023-03-25T05:13:50.389Z,1.00
2023-03-25T05:14:51.935Z,1.03
2023-03-25T05:15:53.401Z,0.80
2023-03-25T05:16:57.336Z,0.90
2023-03-25T05:17:58.736Z,1.13
2023-03-25T05:19:00.311Z,1.43
2023-03-25T05:20:01.896Z,1.20
2023-03-25T05:21:03.405Z,1.20
2023-03-25T05:22:05.007Z,1.20
2023-03-25T05:23:12.337Z,1.33
2023-03-25T05:24:13.855Z,1.10
2023-03-25T05:25:15.748Z,1.10
2023-03-25T05:26:17.087Z,1.40
2023-03-25T05:27:20.216Z,1.13
2023-03-25T05:28:21.525Z,1.20
2023-03-25T05:29:22.860Z,1.10
2023-03-25T05:30:24.260Z,1.60
2023-03-25T05:31:25.731Z,1.40
2023-03-25T05:32:30.044Z,1.00
2023-03-25T05:33:31.485Z,1.23
2023-03-25T05:34:32.884Z,1.17
2023-03-25T05:35:34.226Z,1.20
2023-03-25T05:36:35.642Z,1.20
2023-03-25T05:37:37.835Z,1.20
2023-03-25T05:38:41.733Z,1.30
2023-03-25T05:39:45.288Z,1.23
2023-03-25T05:40:48.349Z,1.20
2023-03-25T05:41:50.405Z,1.00
2023-03-25T05:42:54.600Z,1.10
2023-03-25T05:43:55.939Z,0.80
2023-03-25T05:44:57.573Z,1.00
2023-03-25T05:45:58.990Z,1.00
2023-03-25T05:47:02.995Z,1.00
2023-03-25T05:48:04.975Z,0.90
2023-03-25T05:49:06.459Z,0.87
2023-03-25T05:50:08.685Z,0.90
2023-03-25T05:51:17.998Z,1.00
2023-03-25T05:52:20.035Z,0.80
2023-03-25T05:53:21.515Z,0.90
2023-03-25T05:54:24.596Z,1.00
2023-03-25T05:55:26.523Z,0.80
2023-03-25T05:56:28.072Z,1.00
2023-03-25T05:57:29.541Z,1.00
2023-03-25T05:58:32.457Z,1.00
2023-03-25T05:59:34.329Z,0.80
2023-03-25T06:00:37.269Z,1.00
2023-03-25T06:01:38.782Z,1.30
2023-03-25T06:02:43.250Z,0.80
2023-03-25T06:03:45.459Z,1.10
2023-03-25T06:04:50.324Z,1.47
2023-03-25T06:05:53.154Z,1.17
2023-03-25T06:06:54.508Z,1.33
2023-03-25T06:07:56.500Z,1.00
2023-03-25T06:08:58.667Z,1.20
2023-03-25T06:10:00.045Z,1.20
2023-03-25T06:11:01.398Z,1.67
2023-03-25T06:12:03.831Z,1.10
2023-03-25T06:13:05.264Z,1.37
2023-03-25T06:14:07.064Z,1.83
2023-03-25T06:15:09.219Z,1.60
2023-03-25T06:16:10.620Z,1.40
2023-03-25T06:17:15.682Z,1.30
2023-03-25T06:18:17.133Z,1.50
2023-03-25T06:19:18.691Z,1.37
2023-03-25T06:20:23.148Z,1.40
2023-03-25T06:21:26.613Z,1.40
2023-03-25T06:22:28.409Z,1.43
2023-03-25T06:23:29.890Z,1.70
2023-03-25T06:24:31.327Z,1.40
2023-03-25T06:25:32.765Z,2.10
2023-03-25T06:26:34.101Z,1.70
2023-03-25T06:27:40.190Z,1.30
2023-03-25T06:28:41.791Z,1.77
2023-03-25T06:29:43.486Z,1.43
2023-03-25T06:30:48.474Z,1.60
2023-03-25T06:31:50.177Z,1.90
2023-03-25T06:32:52.445Z,1.40
2023-03-25T06:33:55.934Z,1.30
2023-03-25T06:34:57.366Z,1.50
2023-03-25T06:35:58.755Z,1.53
2023-03-25T06:37:01.188Z,1.67
2023-03-25T06:38:02.615Z,1.50
2023-03-25T06:39:15.578Z,1.30
2023-03-25T06:40:17.312Z,1.30
2023-03-25T06:41:20.619Z,1.57
2023-03-25T06:42:28.969Z,1.50
2023-03-25T06:43:48.779Z,1.70
2023-03-25T06:45:22.933Z,1.67
2023-03-25T06:46:44.956Z,1.80
2023-03-25T06:47:50.240Z,1.40
2023-03-25T06:48:51.838Z,1.70
2023-03-25T06:49:54.614Z,1.67
2023-03-25T06:50:56.027Z,1.63
2023-03-25T06:51:58.209Z,1.67
2023-03-25T06:52:59.647Z,2.10
2023-03-25T06:54:04.111Z,1.37
2023-03-25T06:55:05.658Z,1.90
2023-03-25T06:56:07.216Z,1.60
2023-03-25T06:57:08.725Z,1.80
2023-03-25T06:58:10.688Z,1.57
2023-03-25T06:59:12.105Z,1.80
2023-03-25T07:00:13.819Z,1.40
2023-03-25T07:01:15.523Z,1.93
2023-03-25T07:02:16.907Z,1.57
2023-03-25T07:03:18.233Z,1.90
2023-03-25T07:04:19.792Z,1.87
2023-03-25T07:05:21.482Z,1.50
2023-03-25T07:06:23.529Z,1.57
2023-03-25T07:07:26.196Z,1.53
2023-03-25T07:08:27.880Z,2.37
2023-03-25T07:09:29.193Z,1.83
2023-03-25T07:10:30.923Z,1.60
2023-03-25T07:11:32.981Z,1.80
2023-03-25T07:12:35.119Z,1.40
2023-03-25T07:13:36.457Z,1.37
2023-03-25T07:14:40.311Z,1.80
2023-03-25T07:15:42.083Z,1.57
2023-03-25T07:16:43.620Z,1.83
2023-03-25T07:17:49.053Z,1.67
2023-03-25T07:18:51.325Z,1.50
2023-03-25T07:19:52.660Z,1.83
2023-03-25T07:20:54.007Z,1.43
2023-03-25T07:21:55.534Z,1.53
2023-03-25T07:22:56.849Z,1.73
2023-03-25T07:23:58.183Z,1.63
2023-03-25T07:24:59.590Z,1.70
2023-03-25T07:26:01.020Z,1.60
2023-03-25T07:27:02.352Z,1.60
2023-03-25T07:28:05.329Z,1.33
2023-03-25T07:29:09.015Z,1.20
2023-03-25T07:30:10.719Z,1.30
2023-03-25T07:31:13.165Z,1.30
2023-03-25T07:32:14.537Z,1.87
2023-03-25T07:33:16.721Z,1.70
2023-03-25T07:34:18.121Z,1.83
2023-03-25T07:35:19.554Z,1.60
2023-03-25T07:36:22.041Z,1.50
2023-03-25T07:37:23.352Z,1.50
2023-03-25T07:38:24.724Z,1.40
2023-03-25T07:39:26.221Z,1.30
2023-03-25T07:40:27.716Z,1.60
2023-03-25T07:41:29.138Z,1.30
2023-03-25T07:42:47.262Z,1.50
2023-03-25T07:43:55.382Z,1.60
2023-03-25T07:45:01.152Z,1.60
2023-03-25T07:46:04.358Z,1.83
2023-03-25T07:47:06.099Z,1.43
2023-03-25T07:48:13.482Z,1.53
2023-03-25T07:49:16.069Z,1.60
2023-03-25T07:50:18.441Z,1.80
2023-03-25T07:51:19.822Z,1.30
2023-03-25T07:52:21.539Z,1.90
2023-03-25T07:53:23.009Z,1.83
2023-03-25T07:54:24.593Z,1.43
2023-03-25T07:55:26.216Z,1.80
2023-03-25T07:56:27.556Z,1.80
2023-03-25T07:57:28.976Z,1.60
2023-03-25T07:58:30.499Z,1.40
2023-03-25T07:59:31.868Z,1.83
2023-03-25T08:00:33.357Z,1.90
2023-03-25T08:01:34.703Z,1.83
2023-03-25T08:02:36.574Z,1.60
2023-03-25T08:03:39.860Z,1.60
2023-03-25T08:04:41.578Z,1.87
2023-03-25T08:05:46.968Z,2.03
2023-03-25T08:06:48.438Z,2.00
2023-03-25T08:07:50.439Z,1.63
2023-03-25T08:08:51.887Z,1.60
2023-03-25T08:09:53.328Z,1.93
2023-03-25T08:10:54.737Z,1.80
2023-03-25T08:11:56.104Z,1.60
2023-03-25T08:12:57.576Z,2.07
2023-03-25T08:13:58.957Z,1.67
2023-03-25T08:15:00.367Z,1.50
2023-03-25T08:16:02.173Z,1.00
2023-03-25T08:17:04.986Z,1.30
2023-03-25T08:18:07.024Z,1.37
2023-03-25T08:19:08.853Z,1.37
2023-03-25T08:20:11.352Z,1.23
2023-03-25T08:21:13.292Z,1.50
2023-03-25T08:22:14.837Z,1.40
2023-03-25T08:23:19.601Z,1.53
2023-03-25T08:24:21.315Z,1.30
2023-03-25T08:25:22.745Z,1.17
2023-03-25T08:26:27.263Z,1.07
2023-03-25T08:27:28.698Z,1.30
2023-03-25T08:28:30.234Z,1.57
2023-03-25T08:29:34.635Z,1.03
2023-03-25T08:30:38.862Z,2.53
2023-03-25T08:31:41.722Z,0.90
2023-03-25T08:32:46.096Z,1.20
2023-03-25T08:33:47.924Z,0.70
2023-03-25T08:34:49.343Z,0.97
2023-03-25T08:35:51.411Z,0.90
2023-03-25T08:36:52.898Z,0.60
2023-03-25T08:37:54.318Z,0.70
2023-03-25T08:38:55.910Z,0.80
2023-03-25T08:39:58.067Z,0.80
2023-03-25T08:40:59.535Z,0.80
2023-03-25T08:42:00.888Z,0.70
2023-03-25T08:43:05.866Z,0.90
2023-03-25T08:44:07.549Z,0.80
2023-03-25T08:45:09.522Z,0.90
2023-03-25T08:46:11.111Z,0.60
2023-03-25T08:47:12.616Z,1.00
2023-03-25T08:48:13.944Z,0.77
2023-03-25T08:49:15.423Z,0.77
2023-03-25T08:50:16.904Z,0.60
2023-03-25T08:51:18.393Z,0.80
2023-03-25T08:52:19.920Z,0.90
2023-03-25T08:53:21.322Z,1.60
2023-03-25T08:54:23.268Z,1.10
2023-03-25T08:55:25.545Z,0.80
2023-03-25T08:56:26.945Z,0.60
2023-03-25T08:57:28.282Z,0.90
2023-03-25T08:58:29.606Z,1.10
2023-03-25T08:59:30.952Z,0.50
2023-03-25T09:00:32.345Z,0.50
2023-03-25T09:01:33.795Z,0.80
2023-03-25T09:02:35.292Z,17.70
2023-03-25T09:03:38.516Z,72.57
2023-03-25T09:04:39.844Z,29.20
2023-03-25T09:05:41.490Z,32.70
2023-03-25T09:06:47.460Z,8.43
2023-03-25T09:07:50.408Z,18.20
2023-03-25T09:08:52.355Z,17.37
2023-03-25T09:09:53.704Z,1.33
2023-03-25T09:10:56.152Z,0.30
2023-03-25T09:11:57.625Z,0.30
2023-03-25T09:13:00.006Z,0.40
2023-03-25T09:14:03.874Z,0.30
2023-03-25T09:15:05.705Z,0.40
2023-03-25T09:16:07.471Z,0.50
2023-03-25T09:17:10.818Z,0.50
2023-03-25T09:18:12.385Z,0.40
2023-03-25T09:19:13.703Z,0.50
2023-03-25T09:20:15.589Z,0.70
2023-03-25T09:21:16.916Z,0.60
2023-03-25T09:22:18.349Z,0.60
2023-03-25T09:23:19.617Z,0.60
2023-03-25T09:24:22.648Z,0.63
2023-03-25T09:25:24.015Z,0.70
2023-03-25T09:26:26.159Z,0.87
2023-03-25T09:27:27.556Z,0.87
2023-03-25T09:28:31.014Z,1.10
2023-03-25T09:29:32.344Z,1.37
2023-03-25T09:30:33.713Z,1.10
2023-03-25T09:31:35.529Z,1.30
2023-03-25T09:32:37.097Z,0.87
2023-03-25T09:33:38.438Z,0.60
2023-03-25T09:34:39.720Z,0.90
2023-03-25T09:35:41.390Z,0.70
2023-03-25T09:36:43.048Z,0.80
2023-03-25T09:37:44.623Z,0.70
2023-03-25T09:38:46.554Z,0.83
2023-03-25T09:39:47.925Z,0.53
2023-03-25T09:40:49.579Z,0.70
2023-03-25T09:42:09.595Z,0.60
2023-03-25T09:43:29.949Z,0.63
2023-03-25T09:44:49.729Z,0.63
2023-03-25T09:45:52.661Z,0.67
2023-03-25T09:46:55.516Z,0.67
2023-03-25T09:48:02.845Z,0.70
2023-03-25T09:49:04.667Z,0.80
2023-03-25T09:50:10.532Z,1.67
2023-03-25T09:51:14.037Z,0.60
2023-03-25T09:52:18.188Z,0.77
2023-03-25T09:53:34.615Z,0.90
2023-03-25T09:54:37.301Z,0.70
2023-03-25T09:55:40.944Z,0.90
2023-03-25T09:56:43.454Z,0.70
2023-03-25T09:57:49.014Z,0.80
2023-03-25T09:58:55.121Z,0.80
2023-03-25T09:59:57.208Z,0.90
2023-03-25T10:01:28.969Z,0.80
2023-03-25T10:02:34.412Z,1.03
2023-03-25T10:03:47.257Z,0.80
2023-03-25T10:05:18.843Z,0.80
2023-03-25T10:06:20.956Z,0.60
2023-03-25T10:07:48.507Z,0.70
2023-03-25T10:09:13.604Z,0.80
2023-03-25T10:10:20.781Z,0.70
2023-03-25T10:11:29.367Z,0.80
2023-03-25T10:12:30.722Z,0.90
2023-03-25T10:13:40.845Z,0.97
2023-03-25T10:14:54.451Z,0.90
2023-03-25T10:16:01.683Z,0.70
2023-03-25T10:17:05.911Z,0.70
2023-03-25T10:18:27.714Z,0.80
2023-03-25T10:19:38.314Z,1.07
2023-03-25T10:20:39.601Z,0.90
2023-03-25T10:21:50.230Z,0.80
2023-03-25T10:22:51.501Z,0.83
2023-03-25T10:24:16.746Z,0.80
2023-03-25T10:25:20.414Z,0.70
2023-03-25T10:26:25.672Z,1.00
2023-03-25T10:27:32.226Z,0.90
2023-03-25T10:28:36.789Z,0.60
2023-03-25T10:29:41.078Z,1.00
2023-03-25T10:30:44.230Z,1.20
2023-03-25T10:31:50.246Z,0.80
2023-03-25T10:32:56.922Z,0.80
2023-03-25T10:34:01.312Z,0.87
2023-03-25T10:35:05.392Z,0.90
2023-03-25T10:36:10.564Z,0.60
2023-03-25T10:37:12.905Z,1.07
2023-03-25T10:38:20.946Z,1.20
2023-03-25T10:39:22.655Z,1.50
2023-03-25T10:40:27.056Z,1.03
2023-03-25T10:41:31.100Z,0.80
2023-03-25T10:42:35.022Z,0.70
2023-03-25T10:43:38.089Z,0.80
2023-03-25T10:44:39.511Z,0.80
2023-03-25T10:45:42.051Z,0.77
2023-03-25T10:46:47.586Z,0.70
2023-03-25T10:47:49.648Z,0.70
2023-03-25T10:48:51.140Z,0.77
2023-03-25T10:49:52.558Z,0.80
2023-03-25T10:51:01.850Z,0.80
2023-03-25T10:52:04.031Z,0.70
2023-03-25T10:53:07.134Z,0.83
2023-03-25T10:54:10.979Z,1.30
2023-03-25T10:55:23.676Z,1.20
2023-03-25T10:56:26.518Z,0.97
2023-03-25T10:57:31.617Z,1.00
2023-03-25T10:58:33.908Z,0.83
2023-03-25T10:59:35.955Z,0.87
2023-03-25T11:00:37.328Z,0.70
2023-03-25T11:01:40.136Z,0.90
2023-03-25T11:02:41.554Z,1.20
2023-03-25T11:03:43.640Z,2.20
2023-03-25T11:04:46.030Z,1.20
2023-03-25T11:05:48.255Z,1.00
2023-03-25T11:06:55.248Z,0.87
2023-03-25T11:08:06.471Z,1.10
2023-03-25T11:09:23.393Z,1.00
2023-03-25T11:10:26.142Z,0.90
2023-03-25T11:11:32.078Z,0.80
2023-03-25T11:12:42.837Z,0.80
2023-03-25T11:13:45.544Z,1.60
2023-03-25T11:14:54.054Z,0.93
2023-03-25T11:15:57.684Z,0.90
2023-03-25T11:17:04.071Z,1.00
2023-03-25T11:18:08.806Z,0.80
2023-03-25T11:19:16.157Z,1.00
2023-03-25T11:20:20.482Z,0.70
2023-03-25T11:21:21.799Z,0.60
2023-03-25T11:22:26.425Z,0.70
2023-03-25T11:23:31.396Z,0.80
2023-03-25T11:24:34.569Z,0.90
2023-03-25T11:25:37.472Z,0.70
2023-03-25T11:26:40.547Z,0.97
2023-03-25T11:27:47.257Z,1.00
2023-03-25T11:28:49.331Z,1.50
2023-03-25T11:29:54.808Z,1.17
2023-03-25T11:31:06.272Z,1.00
2023-03-25T11:32:12.954Z,0.90
2023-03-25T11:33:17.262Z,0.80
2023-03-25T11:34:22.394Z,0.90
2023-03-25T11:35:28.423Z,0.90
2023-03-25T11:36:31.121Z,1.20
2023-03-25T11:37:36.624Z,1.00
2023-03-25T11:38:38.746Z,1.80
2023-03-25T11:39:40.997Z,0.97
2023-03-25T11:40:53.749Z,0.97
2023-03-25T11:41:55.238Z,1.10
2023-03-25T11:43:00.680Z,0.97
2023-03-25T11:44:03.145Z,1.23
2023-03-25T11:45:04.902Z,1.27
2023-03-25T11:46:10.691Z,1.10
2023-03-25T11:47:15.386Z,0.77
2023-03-25T11:48:18.607Z,0.70
2023-03-25T11:49:22.761Z,0.80
2023-03-25T11:50:26.198Z,1.10
2023-03-25T11:51:32.347Z,1.07
2023-03-25T11:52:41.714Z,0.67
2023-03-25T11:53:45.218Z,0.87
2023-03-25T11:54:48.252Z,0.70
2023-03-25T11:55:52.125Z,0.77
2023-03-25T11:56:54.442Z,0.80
2023-03-25T11:57:58.805Z,0.83
2023-03-25T11:59:01.312Z,0.87
2023-03-25T12:00:12.668Z,0.90
2023-03-25T12:01:21.982Z,0.67
2023-03-25T12:02:25.826Z,0.80
2023-03-25T12:03:28.078Z,0.83
2023-03-25T12:04:30.347Z,0.70
2023-03-25T12:05:32.777Z,0.60
2023-03-25T12:06:36.753Z,0.60
2023-03-25T12:08:01.805Z,0.60
2023-03-25T12:09:07.341Z,0.73
2023-03-25T12:10:15.544Z,0.70
2023-03-25T12:11:20.183Z,0.67
2023-03-25T12:12:32.512Z,0.70
2023-03-25T12:13:40.716Z,0.70
2023-03-25T12:14:54.339Z,0.60
2023-03-25T12:16:06.897Z,0.70
2023-03-25T12:17:27.124Z,0.80
2023-03-25T12:18:37.577Z,0.70
2023-03-25T12:20:01.210Z,0.60
2023-03-25T12:21:23.231Z,0.80
2023-03-25T12:22:34.057Z,1.20
2023-03-25T12:23:48.311Z,0.80
2023-03-25T12:25:02.070Z,0.90
2023-03-25T12:26:07.965Z,1.00
2023-03-25T12:27:24.657Z,0.80
2023-03-25T12:28:41.386Z,1.00
2023-03-25T12:29:56.547Z,0.80
2023-03-25T12:31:17.654Z,0.83
2023-03-25T12:32:33.278Z,0.90
2023-03-25T12:33:38.082Z,0.90
2023-03-25T12:34:39.716Z,0.93
2023-03-25T12:35:49.811Z,0.93
2023-03-25T12:36:51.425Z,1.10
2023-03-25T12:38:17.209Z,1.10
2023-03-25T12:39:42.735Z,0.80
2023-03-25T12:40:51.199Z,1.10
2023-03-25T12:42:14.207Z,0.90
2023-03-25T12:43:21.124Z,0.90
2023-03-25T12:44:22.485Z,0.80
2023-03-25T12:45:24.662Z,1.00
2023-03-25T12:46:26.371Z,0.80
2023-03-25T12:47:34.938Z,0.90
2023-03-25T12:48:42.066Z,1.00
2023-03-25T12:49:50.742Z,1.00
2023-03-25T12:50:52.325Z,0.90
2023-03-25T12:52:03.163Z,1.00
2023-03-25T12:53:23.530Z,1.00
2023-03-25T12:54:34.186Z,0.77
2023-03-25T12:55:58.237Z,1.10
2023-03-25T12:57:03.656Z,0.60
2023-03-25T12:58:24.048Z,0.60
2023-03-25T12:59:41.705Z,0.60
2023-03-25T13:00:43.464Z,0.90
2023-03-25T13:02:04.897Z,0.80
2023-03-25T13:03:26.901Z,0.70
2023-03-25T13:04:40.441Z,0.90
2023-03-25T13:05:52.199Z,1.10
2023-03-25T13:06:58.723Z,1.00
2023-03-25T13:08:04.013Z,1.13
2023-03-25T13:09:09.641Z,0.90
2023-03-25T13:10:21.290Z,0.70
2023-03-25T13:11:37.906Z,0.93
2023-03-25T13:12:42.832Z,0.87
2023-03-25T13:13:45.777Z,0.90
2023-03-25T13:15:00.192Z,0.90
2023-03-25T13:16:22.273Z,1.07
2023-03-25T13:17:36.189Z,1.10
2023-03-25T13:18:44.864Z,1.00
2023-03-25T13:19:47.829Z,1.10
2023-03-25T13:20:58.205Z,1.00
2023-03-25T13:22:02.297Z,0.80
2023-03-25T13:23:05.458Z,1.07
2023-03-25T13:24:19.190Z,1.97
2023-03-25T13:25:32.650Z,1.40
2023-03-25T13:26:35.049Z,0.80
2023-03-25T13:27:40.096Z,0.73
2023-03-25T13:28:46.771Z,1.53
2023-03-25T13:29:58.770Z,1.17
2023-03-25T13:31:01.433Z,0.70
2023-03-25T13:32:06.923Z,0.90
2023-03-25T13:33:13.764Z,0.90
2023-03-25T13:34:28.346Z,0.80
2023-03-25T13:35:36.014Z,0.70
2023-03-25T13:36:48.046Z,0.83
2023-03-25T13:37:56.216Z,1.03
2023-03-25T13:38:58.970Z,1.00
2023-03-25T13:40:00.971Z,0.70
2023-03-25T13:41:09.188Z,0.80
2023-03-25T13:42:16.119Z,1.00
2023-03-25T13:43:24.800Z,1.10
2023-03-25T13:44:28.453Z,0.90
2023-03-25T13:45:32.650Z,1.10
2023-03-25T13:46:36.889Z,0.90
2023-03-25T13:47:40.577Z,0.90
2023-03-25T13:48:47.018Z,0.80
2023-03-25T13:49:52.864Z,0.90
2023-03-25T13:50:54.518Z,0.73
2023-03-25T13:51:56.191Z,0.70
2023-03-25T13:53:02.541Z,0.87
2023-03-25T13:54:07.911Z,0.73
2023-03-25T13:55:24.266Z,0.90
2023-03-25T13:56:29.762Z,0.60
2023-03-25T13:57:50.394Z,0.80
2023-03-25T13:58:57.888Z,1.00
2023-03-25T14:00:21.715Z,0.80
2023-03-25T14:01:36.531Z,0.60
2023-03-25T14:02:43.508Z,0.97
2023-03-25T14:04:14.313Z,0.63
2023-03-25T14:05:21.511Z,1.10
2023-03-25T14:06:35.006Z,0.90
2023-03-25T14:07:45.724Z,1.00
2023-03-25T14:09:00.259Z,0.70
2023-03-25T14:10:13.983Z,0.67
2023-03-25T14:11:21.525Z,1.00
2023-03-25T14:12:37.575Z,0.90
2023-03-25T14:13:47.224Z,1.00
2023-03-25T14:14:51.192Z,0.77
2023-03-25T14:15:58.001Z,0.80
2023-03-25T14:16:59.977Z,0.70
2023-03-25T14:18:02.543Z,0.87
2023-03-25T14:19:07.233Z,0.80
2023-03-25T14:20:12.442Z,0.80
2023-03-25T14:21:26.042Z,0.80
2023-03-25T14:22:28.644Z,0.90
2023-03-25T14:23:30.779Z,0.70
2023-03-25T14:24:34.959Z,0.93
2023-03-25T14:25:40.985Z,0.80
2023-03-25T14:26:53.201Z,0.80
2023-03-25T14:27:54.572Z,1.00